sensor_id;sensor_type;location;lat;lon;timestamp;P1;durP1;ratioP1;P2;durP2;ratioP2
47513;SDS011;33951;51.988;5.910;2023-03-03T00:00:34;45.78;;;24.92;;
47513;SDS011;33951;51.988;5.910;2023-03-03T00:03:06;43.92;;;24.35;;
47513;SDS011;33951;51.988;5.910;2023-03-03T00:05:37;36.92;;;22.38;;
47513;SDS011;33951;51.988;5.910;2023-03-03T00:08:08;41.05;;;23.52;;
47513;SDS011;33951;51.988;5.910;2023-03-03T00:10:42;41.65;;;23.13;;
47513;SDS011;33951;51.988;5.910;2023-03-03T00:13:31;39.17;;;22.02;;
47513;SDS011;33951;51.988;5.910;2023-03-03T00:16:09;39.50;;;23.50;;
47513;SDS011;33951;51.988;5.910;2023-03-03T00:18:45;41.35;;;22.52;;
47513;SDS011;33951;51.988;5.910;2023-03-03T00:24:10;37.85;;;21.25;;
47513;SDS011;33951;51.988;5.910;2023-03-03T00:29:52;37.85;;;20.70;;
47513;SDS011;33951;51.988;5.910;2023-03-03T00:37:57;41.28;;;22.60;;
47513;SDS011;33951;51.988;5.910;2023-03-03T00:40:35;41.60;;;22.17;;
47513;SDS011;33951;51.988;5.910;2023-03-03T00:43:11;43.50;;;22.90;;
47513;SDS011;33951;51.988;5.910;2023-03-03T00:45:53;37.85;;;21.33;;
47513;SDS011;33951;51.988;5.910;2023-03-03T00:48:38;42.33;;;21.45;;
47513;SDS011;33951;51.988;5.910;2023-03-03T00:58:06;39.28;;;20.80;;
47513;SDS011;33951;51.988;5.910;2023-03-03T05:00:54;42.75;;;21.80;;
47513;SDS011;33951;51.988;5.910;2023-03-03T05:03:21;45.00;;;23.15;;
47513;SDS011;33951;51.988;5.910;2023-03-03T05:05:47;44.88;;;23.13;;
47513;SDS011;33951;51.988;5.910;2023-03-03T05:08:13;48.88;;;23.10;;
47513;SDS011;33951;51.988;5.910;2023-03-03T05:10:38;46.50;;;22.83;;
47513;SDS011;33951;51.988;5.910;2023-03-03T05:13:04;50.47;;;22.67;;
47513;SDS011;33951;51.988;5.910;2023-03-03T05:15:31;44.60;;;22.15;;
47513;SDS011;33951;51.988;5.910;2023-03-03T05:17:56;47.22;;;22.88;;
47513;SDS011;33951;51.988;5.910;2023-03-03T05:20:23;49.03;;;23.05;;
47513;SDS011;33951;51.988;5.910;2023-03-03T05:22:50;48.72;;;24.33;;
47513;SDS011;33951;51.988;5.910;2023-03-03T05:25:16;43.88;;;24.02;;
47513;SDS011;33951;51.988;5.910;2023-03-03T05:27:41;45.30;;;21.80;;
47513;SDS011;33951;51.988;5.910;2023-03-03T05:30:08;47.33;;;23.85;;
47513;SDS011;33951;51.988;5.910;2023-03-03T05:32:34;45.30;;;23.92;;
47513;SDS011;33951;51.988;5.910;2023-03-03T05:35:00;43.22;;;22.67;;
47513;SDS011;33951;51.988;5.910;2023-03-03T05:37:26;46.88;;;23.10;;
47513;SDS011;33951;51.988;5.910;2023-03-03T05:39:52;44.50;;;20.60;;
47513;SDS011;33951;51.988;5.910;2023-03-03T05:42:17;36.15;;;18.98;;
47513;SDS011;33951;51.988;5.910;2023-03-03T05:44:43;36.75;;;19.63;;
47513;SDS011;33951;51.988;5.910;2023-03-03T05:47:09;41.08;;;19.67;;
47513;SDS011;33951;51.988;5.910;2023-03-03T05:49:34;38.47;;;20.55;;
47513;SDS011;33951;51.988;5.910;2023-03-03T05:52:00;34.58;;;19.20;;
47513;SDS011;33951;51.988;5.910;2023-03-03T05:54:26;41.45;;;20.23;;
47513;SDS011;33951;51.988;5.910;2023-03-03T05:56:51;36.83;;;18.83;;
47513;SDS011;33951;51.988;5.910;2023-03-03T05:59:17;29.45;;;16.80;;
47513;SDS011;33951;51.988;5.910;2023-03-03T06:01:43;29.58;;;15.18;;
47513;SDS011;33951;51.988;5.910;2023-03-03T06:04:09;35.45;;;18.00;;
47513;SDS011;33951;51.988;5.910;2023-03-03T06:06:35;30.95;;;16.25;;
47513;SDS011;33951;51.988;5.910;2023-03-03T06:09:01;31.55;;;16.13;;
47513;SDS011;33951;51.988;5.910;2023-03-03T06:11:30;34.67;;;17.00;;
47513;SDS011;33951;51.988;5.910;2023-03-03T06:13:56;36.53;;;16.75;;
47513;SDS011;33951;51.988;5.910;2023-03-03T06:16:21;34.42;;;17.63;;
47513;SDS011;33951;51.988;5.910;2023-03-03T06:18:47;31.65;;;16.42;;
47513;SDS011;33951;51.988;5.910;2023-03-03T06:21:15;36.05;;;17.95;;
47513;SDS011;33951;51.988;5.910;2023-03-03T06:23:41;36.92;;;18.38;;
47513;SDS011;33951;51.988;5.910;2023-03-03T06:26:06;32.00;;;17.35;;
47513;SDS011;33951;51.988;5.910;2023-03-03T06:28:32;34.28;;;18.45;;
47513;SDS011;33951;51.988;5.910;2023-03-03T06:30:58;30.95;;;17.90;;
47513;SDS011;33951;51.988;5.910;2023-03-03T06:33:23;33.90;;;17.17;;
47513;SDS011;33951;51.988;5.910;2023-03-03T06:35:49;37.08;;;16.70;;
47513;SDS011;33951;51.988;5.910;2023-03-03T06:38:16;30.83;;;17.02;;
47513;SDS011;33951;51.988;5.910;2023-03-03T06:40:42;32.75;;;17.42;;
47513;SDS011;33951;51.988;5.910;2023-03-03T06:43:09;28.58;;;16.73;;
47513;SDS011;33951;51.988;5.910;2023-03-03T06:45:35;31.95;;;17.15;;
47513;SDS011;33951;51.988;5.910;2023-03-03T06:48:00;31.15;;;16.10;;
47513;SDS011;33951;51.988;5.910;2023-03-03T06:50:29;32.20;;;16.40;;
47513;SDS011;33951;51.988;5.910;2023-03-03T06:53:13;30.25;;;16.08;;
47513;SDS011;33951;51.988;5.910;2023-03-03T06:55:40;30.27;;;17.35;;
47513;SDS011;33951;51.988;5.910;2023-03-03T06:58:15;36.35;;;17.25;;
47513;SDS011;33951;51.988;5.910;2023-03-03T07:00:43;31.13;;;17.27;;
47513;SDS011;33951;51.988;5.910;2023-03-03T07:03:12;31.27;;;15.90;;
47513;SDS011;33951;51.988;5.910;2023-03-03T07:08:46;29.38;;;13.77;;
47513;SDS011;33951;51.988;5.910;2023-03-03T07:11:13;26.70;;;14.35;;
47513;SDS011;33951;51.988;5.910;2023-03-03T07:13:46;29.52;;;15.73;;
47513;SDS011;33951;51.988;5.910;2023-03-03T07:16:13;23.58;;;12.52;;
47513;SDS011;33951;51.988;5.910;2023-03-03T07:18:48;20.73;;;12.30;;
47513;SDS011;33951;51.988;5.910;2023-03-03T07:21:20;29.33;;;13.63;;
47513;SDS011;33951;51.988;5.910;2023-03-03T07:23:50;27.13;;;15.07;;
47513;SDS011;33951;51.988;5.910;2023-03-03T07:26:35;28.80;;;12.40;;
47513;SDS011;33951;51.988;5.910;2023-03-03T07:31:56;19.25;;;9.35;;
47513;SDS011;33951;51.988;5.910;2023-03-03T07:34:23;14.10;;;7.50;;
47513;SDS011;33951;51.988;5.910;2023-03-03T07:36:54;27.92;;;15.15;;
47513;SDS011;33951;51.988;5.910;2023-03-03T07:42:18;21.45;;;11.27;;
47513;SDS011;33951;51.988;5.910;2023-03-03T07:44:52;17.58;;;9.90;;
47513;SDS011;33951;51.988;5.910;2023-03-03T07:47:24;16.92;;;9.20;;
47513;SDS011;33951;51.988;5.910;2023-03-03T07:50:00;20.95;;;10.57;;
47513;SDS011;33951;51.988;5.910;2023-03-03T07:52:40;13.02;;;7.40;;
47513;SDS011;33951;51.988;5.910;2023-03-03T07:55:19;15.48;;;9.07;;
47513;SDS011;33951;51.988;5.910;2023-03-03T07:57:54;15.52;;;9.38;;
47513;SDS011;33951;51.988;5.910;2023-03-03T08:02:57;15.57;;;9.43;;
47513;SDS011;33951;51.988;5.910;2023-03-03T08:15:43;18.02;;;8.27;;
47513;SDS011;33951;51.988;5.910;2023-03-03T08:18:32;17.83;;;9.05;;
47513;SDS011;33951;51.988;5.910;2023-03-03T08:21:44;15.38;;;7.55;;
47513;SDS011;33951;51.988;5.910;2023-03-03T08:24:10;16.20;;;8.85;;
47513;SDS011;33951;51.988;5.910;2023-03-03T08:26:36;14.90;;;8.60;;
47513;SDS011;33951;51.988;5.910;2023-03-03T08:29:01;16.80;;;8.82;;
47513;SDS011;33951;51.988;5.910;2023-03-03T08:31:27;16.00;;;8.82;;
47513;SDS011;33951;51.988;5.910;2023-03-03T08:33:53;59.30;;;31.80;;
47513;SDS011;33951;51.988;5.910;2023-03-03T08:36:19;23.55;;;12.55;;
47513;SDS011;33951;51.988;5.910;2023-03-03T08:38:44;20.83;;;9.43;;
47513;SDS011;33951;51.988;5.910;2023-03-03T08:41:13;13.52;;;7.80;;
47513;SDS011;33951;51.988;5.910;2023-03-03T08:43:39;15.25;;;8.65;;
47513;SDS011;33951;51.988;5.910;2023-03-03T08:46:05;12.70;;;7.70;;
47513;SDS011;33951;51.988;5.910;2023-03-03T08:48:32;16.88;;;8.02;;
47513;SDS011;33951;51.988;5.910;2023-03-03T08:50:58;17.83;;;8.75;;
47513;SDS011;33951;51.988;5.910;2023-03-03T08:53:24;14.02;;;7.55;;
47513;SDS011;33951;51.988;5.910;2023-03-03T08:55:50;17.67;;;8.48;;
47513;SDS011;33951;51.988;5.910;2023-03-03T08:58:19;13.48;;;8.23;;
47513;SDS011;33951;51.988;5.910;2023-03-03T09:00:45;19.45;;;8.25;;
47513;SDS011;33951;51.988;5.910;2023-03-03T09:03:11;13.73;;;8.20;;
47513;SDS011;33951;51.988;5.910;2023-03-03T09:05:37;17.38;;;8.10;;
47513;SDS011;33951;51.988;5.910;2023-03-03T09:08:04;16.08;;;8.27;;
47513;SDS011;33951;51.988;5.910;2023-03-03T09:10:30;13.00;;;6.88;;
47513;SDS011;33951;51.988;5.910;2023-03-03T09:16:15;11.80;;;7.43;;
47513;SDS011;33951;51.988;5.910;2023-03-03T09:18:43;14.20;;;7.18;;
47513;SDS011;33951;51.988;5.910;2023-03-03T09:23:54;11.15;;;6.43;;
47513;SDS011;33951;51.988;5.910;2023-03-03T09:31:48;11.60;;;6.78;;
47513;SDS011;33951;51.988;5.910;2023-03-03T09:37:10;11.07;;;5.68;;
47513;SDS011;33951;51.988;5.910;2023-03-03T09:39:47;9.57;;;6.03;;
47513;SDS011;33951;51.988;5.910;2023-03-03T09:45:12;11.07;;;6.38;;
47513;SDS011;33951;51.988;5.910;2023-03-03T09:48:21;12.73;;;6.68;;
47513;SDS011;33951;51.988;5.910;2023-03-03T10:01:57;11.57;;;6.55;;
47513;SDS011;33951;51.988;5.910;2023-03-03T10:07:23;9.18;;;5.38;;
47513;SDS011;33951;51.988;5.910;2023-03-03T10:18:11;9.45;;;6.20;;
47513;SDS011;33951;51.988;5.910;2023-03-03T10:21:10;9.50;;;5.47;;
47513;SDS011;33951;51.988;5.910;2023-03-03T10:26:49;12.63;;;7.30;;
47513;SDS011;33951;51.988;5.910;2023-03-03T10:37:32;8.32;;;5.10;;
47513;SDS011;33951;51.988;5.910;2023-03-03T10:48:51;9.45;;;5.38;;
47513;SDS011;33951;51.988;5.910;2023-03-03T11:05:42;6.65;;;4.25;;
47513;SDS011;33951;51.988;5.910;2023-03-03T11:08:26;6.32;;;4.03;;
47513;SDS011;33951;51.988;5.910;2023-03-03T11:19:11;5.53;;;3.40;;
47513;SDS011;33951;51.988;5.910;2023-03-03T11:24:36;7.03;;;3.95;;
47513;SDS011;33951;51.988;5.910;2023-03-03T11:32:44;6.28;;;4.30;;
47513;SDS011;33951;51.988;5.910;2023-03-03T11:56:02;4.85;;;2.70;;
47513;SDS011;33951;51.988;5.910;2023-03-03T11:58:39;6.85;;;3.03;;
47513;SDS011;33951;51.988;5.910;2023-03-03T12:03:56;7.20;;;3.25;;
47513;SDS011;33951;51.988;5.910;2023-03-03T12:06:40;4.22;;;2.70;;
47513;SDS011;33951;51.988;5.910;2023-03-03T12:17:29;4.95;;;2.50;;
47513;SDS011;33951;51.988;5.910;2023-03-03T12:20:44;4.57;;;2.55;;
47513;SDS011;33951;51.988;5.910;2023-03-03T12:29:11;4.93;;;2.65;;
47513;SDS011;33951;51.988;5.910;2023-03-03T12:35:33;3.10;;;2.55;;
47513;SDS011;33951;51.988;5.910;2023-03-03T12:48:11;20.02;;;9.48;;
47513;SDS011;33951;51.988;5.910;2023-03-03T12:56:25;10.15;;;5.80;;
47513;SDS011;33951;51.988;5.910;2023-03-03T12:59:13;8.20;;;4.18;;
47513;SDS011;33951;51.988;5.910;2023-03-03T13:01:55;10.63;;;5.90;;
47513;SDS011;33951;51.988;5.910;2023-03-03T13:20:37;3.67;;;2.65;;
47513;SDS011;33951;51.988;5.910;2023-03-03T13:25:59;4.30;;;1.92;;
47513;SDS011;33951;51.988;5.910;2023-03-03T13:28:33;8.45;;;3.03;;
47513;SDS011;33951;51.988;5.910;2023-03-03T13:34:07;26.88;;;14.02;;
47513;SDS011;33951;51.988;5.910;2023-03-03T13:36:39;6.15;;;3.85;;
47513;SDS011;33951;51.988;5.910;2023-03-03T13:39:24;4.00;;;2.58;;
47513;SDS011;33951;51.988;5.910;2023-03-03T13:44:53;3.20;;;2.60;;
47513;SDS011;33951;51.988;5.910;2023-03-03T13:52:32;5.70;;;2.60;;
47513;SDS011;33951;51.988;5.910;2023-03-03T13:55:13;5.63;;;2.50;;
47513;SDS011;33951;51.988;5.910;2023-03-03T14:05:40;5.13;;;3.22;;
47513;SDS011;33951;51.988;5.910;2023-03-03T14:11:16;5.88;;;2.97;;
47513;SDS011;33951;51.988;5.910;2023-03-03T14:19:33;4.78;;;2.80;;
47513;SDS011;33951;51.988;5.910;2023-03-03T14:27:32;6.65;;;2.83;;
47513;SDS011;33951;51.988;5.910;2023-03-03T14:30:29;6.30;;;3.40;;
47513;SDS011;33951;51.988;5.910;2023-03-03T14:35:42;5.53;;;3.22;;
47513;SDS011;33951;51.988;5.910;2023-03-03T14:40:43;6.47;;;3.47;;
47513;SDS011;33951;51.988;5.910;2023-03-03T14:45:50;6.05;;;2.92;;
47513;SDS011;33951;51.988;5.910;2023-03-03T14:48:18;7.13;;;2.70;;
47513;SDS011;33951;51.988;5.910;2023-03-03T14:55:55;3.72;;;2.65;;
47513;SDS011;33951;51.988;5.910;2023-03-03T14:58:41;4.82;;;2.40;;
47513;SDS011;33951;51.988;5.910;2023-03-03T15:01:29;27.58;;;11.43;;
47513;SDS011;33951;51.988;5.910;2023-03-03T15:06:44;10.95;;;4.40;;
47513;SDS011;33951;51.988;5.910;2023-03-03T15:14:50;9.38;;;5.60;;
47513;SDS011;33951;51.988;5.910;2023-03-03T15:17:36;9.63;;;6.43;;
47513;SDS011;33951;51.988;5.910;2023-03-03T15:36:42;19.75;;;10.98;;
47513;SDS011;33951;51.988;5.910;2023-03-03T15:42:03;12.32;;;7.50;;
47513;SDS011;33951;51.988;5.910;2023-03-03T15:48:00;8.98;;;6.47;;
47513;SDS011;33951;51.988;5.910;2023-03-03T15:50:44;5.35;;;3.67;;
47513;SDS011;33951;51.988;5.910;2023-03-03T15:56:08;5.82;;;2.60;;
47513;SDS011;33951;51.988;5.910;2023-03-03T16:01:28;7.82;;;2.10;;
47513;SDS011;33951;51.988;5.910;2023-03-03T16:04:05;5.85;;;2.33;;
47513;SDS011;33951;51.988;5.910;2023-03-03T16:09:36;3.73;;;2.37;;
47513;SDS011;33951;51.988;5.910;2023-03-03T16:12:11;7.38;;;4.07;;
47513;SDS011;33951;51.988;5.910;2023-03-03T16:15:03;4.32;;;2.20;;
47513;SDS011;33951;51.988;5.910;2023-03-03T16:23:46;2.73;;;1.67;;
47513;SDS011;33951;51.988;5.910;2023-03-03T16:31:48;5.38;;;2.13;;
47513;SDS011;33951;51.988;5.910;2023-03-03T16:34:29;3.20;;;1.98;;
47513;SDS011;33951;51.988;5.910;2023-03-03T16:39:53;6.03;;;2.63;;
47513;SDS011;33951;51.988;5.910;2023-03-03T16:42:30;4.93;;;2.08;;
47513;SDS011;33951;51.988;5.910;2023-03-03T16:45:19;5.57;;;1.83;;
47513;SDS011;33951;51.988;5.910;2023-03-03T16:54:02;6.55;;;2.10;;
47513;SDS011;33951;51.988;5.910;2023-03-03T16:56:43;4.53;;;1.85;;
47513;SDS011;33951;51.988;5.910;2023-03-03T16:59:23;2.90;;;1.80;;
47513;SDS011;33951;51.988;5.910;2023-03-03T17:04:50;4.70;;;1.50;;
47513;SDS011;33951;51.988;5.910;2023-03-03T17:07:50;4.63;;;1.75;;
47513;SDS011;33951;51.988;5.910;2023-03-03T17:15:51;5.00;;;1.98;;
47513;SDS011;33951;51.988;5.910;2023-03-03T18:36:38;4.95;;;1.63;;
47513;SDS011;33951;51.988;5.910;2023-03-03T18:44:39;5.18;;;1.85;;
47513;SDS011;33951;51.988;5.910;2023-03-03T18:47:05;7.25;;;1.83;;
47513;SDS011;33951;51.988;5.910;2023-03-03T18:52:21;16.67;;;3.10;;
47513;SDS011;33951;51.988;5.910;2023-03-03T18:57:35;8.25;;;2.25;;
47513;SDS011;33951;51.988;5.910;2023-03-03T19:02:56;9.50;;;2.47;;
47513;SDS011;33951;51.988;5.910;2023-03-03T19:05:24;16.55;;;2.75;;
47513;SDS011;33951;51.988;5.910;2023-03-03T19:08:00;14.48;;;3.05;;
47513;SDS011;33951;51.988;5.910;2023-03-03T19:19:03;13.90;;;3.13;;
47513;SDS011;33951;51.988;5.910;2023-03-03T19:21:37;19.63;;;3.95;;
47513;SDS011;33951;51.988;5.910;2023-03-03T19:27:34;12.52;;;3.00;;
47513;SDS011;33951;51.988;5.910;2023-03-03T19:32:45;13.35;;;3.75;;
47513;SDS011;33951;51.988;5.910;2023-03-03T19:35:49;12.20;;;2.50;;
47513;SDS011;33951;51.988;5.910;2023-03-03T19:44:28;17.33;;;3.53;;
47513;SDS011;33951;51.988;5.910;2023-03-03T19:47:03;17.73;;;3.05;;
47513;SDS011;33951;51.988;5.910;2023-03-03T19:49:51;11.88;;;3.47;;
47513;SDS011;33951;51.988;5.910;2023-03-03T19:52:43;16.67;;;4.47;;
47513;SDS011;33951;51.988;5.910;2023-03-03T19:55:29;19.95;;;3.80;;
47513;SDS011;33951;51.988;5.910;2023-03-03T19:58:05;20.92;;;2.70;;
47513;SDS011;33951;51.988;5.910;2023-03-03T20:00:47;17.45;;;3.38;;
47513;SDS011;33951;51.988;5.910;2023-03-03T20:03:37;17.85;;;3.45;;
47513;SDS011;33951;51.988;5.910;2023-03-03T20:07:08;19.83;;;2.97;;
47513;SDS011;33951;51.988;5.910;2023-03-03T20:14:43;17.85;;;2.88;;
47513;SDS011;33951;51.988;5.910;2023-03-03T20:38:14;20.73;;;2.95;;
47513;SDS011;33951;51.988;5.910;2023-03-03T20:40:47;18.30;;;3.65;;
47513;SDS011;33951;51.988;5.910;2023-03-03T20:52:04;12.57;;;2.63;;
47513;SDS011;33951;51.988;5.910;2023-03-03T20:57:36;12.93;;;2.80;;
47513;SDS011;33951;51.988;5.910;2023-03-03T21:01:04;18.75;;;3.97;;
47513;SDS011;33951;51.988;5.910;2023-03-03T21:05:55;18.55;;;2.95;;
47513;SDS011;33951;51.988;5.910;2023-03-03T21:08:42;14.15;;;3.05;;
47513;SDS011;33951;51.988;5.910;2023-03-03T21:11:11;15.60;;;2.72;;
47513;SDS011;33951;51.988;5.910;2023-03-03T21:24:16;21.25;;;4.03;;
47513;SDS011;33951;51.988;5.910;2023-03-03T21:26:48;18.20;;;3.20;;
47513;SDS011;33951;51.988;5.910;2023-03-03T21:29:23;16.38;;;4.68;;
47513;SDS011;33951;51.988;5.910;2023-03-03T21:31:56;18.20;;;2.88;;
47513;SDS011;33951;51.988;5.910;2023-03-03T21:37:09;17.88;;;3.42;;
47513;SDS011;33951;51.988;5.910;2023-03-03T21:40:10;15.60;;;3.15;;
47513;SDS011;33951;51.988;5.910;2023-03-03T21:43:00;18.27;;;3.90;;
47513;SDS011;33951;51.988;5.910;2023-03-03T21:45:26;25.73;;;4.30;;
47513;SDS011;33951;51.988;5.910;2023-03-03T21:47:54;15.43;;;3.15;;
47513;SDS011;33951;51.988;5.910;2023-03-03T21:50:21;18.80;;;2.88;;
47513;SDS011;33951;51.988;5.910;2023-03-03T21:52:48;26.27;;;4.88;;
47513;SDS011;33951;51.988;5.910;2023-03-03T21:55:17;17.58;;;3.83;;
47513;SDS011;33951;51.988;5.910;2023-03-03T21:57:42;18.83;;;4.13;;
47513;SDS011;33951;51.988;5.910;2023-03-03T22:00:08;26.65;;;4.53;;
47513;SDS011;33951;51.988;5.910;2023-03-03T22:02:35;24.13;;;4.00;;
47513;SDS011;33951;51.988;5.910;2023-03-03T22:05:00;17.55;;;3.63;;
47513;SDS011;33951;51.988;5.910;2023-03-03T22:07:31;23.35;;;3.85;;
47513;SDS011;33951;51.988;5.910;2023-03-03T22:09:56;28.88;;;4.22;;
47513;SDS011;33951;51.988;5.910;2023-03-03T22:12:22;20.58;;;4.13;;
47513;SDS011;33951;51.988;5.910;2023-03-03T22:14:51;26.35;;;4.65;;
47513;SDS011;33951;51.988;5.910;2023-03-03T22:17:16;17.70;;;4.35;;
47513;SDS011;33951;51.988;5.910;2023-03-03T22:19:42;21.00;;;3.78;;
47513;SDS011;33951;51.988;5.910;2023-03-03T22:22:10;21.38;;;4.35;;
47513;SDS011;33951;51.988;5.910;2023-03-03T22:24:36;19.33;;;4.07;;
47513;SDS011;33951;51.988;5.910;2023-03-03T22:27:02;22.33;;;4.20;;
47513;SDS011;33951;51.988;5.910;2023-03-03T22:29:27;14.77;;;3.35;;
47513;SDS011;33951;51.988;5.910;2023-03-03T22:31:53;16.92;;;3.08;;
47513;SDS011;33951;51.988;5.910;2023-03-03T22:34:21;17.10;;;4.72;;
47513;SDS011;33951;51.988;5.910;2023-03-03T22:36:54;24.65;;;3.78;;
47513;SDS011;33951;51.988;5.910;2023-03-03T22:39:20;22.73;;;4.40;;
47513;SDS011;33951;51.988;5.910;2023-03-03T22:41:45;18.98;;;3.97;;
47513;SDS011;33951;51.988;5.910;2023-03-03T22:44:13;23.63;;;4.13;;
47513;SDS011;33951;51.988;5.910;2023-03-03T22:46:39;18.70;;;3.47;;
47513;SDS011;33951;51.988;5.910;2023-03-03T22:49:10;19.15;;;3.55;;
47513;SDS011;33951;51.988;5.910;2023-03-03T22:51:35;15.98;;;3.15;;
47513;SDS011;33951;51.988;5.910;2023-03-03T22:54:04;14.20;;;3.05;;
47513;SDS011;33951;51.988;5.910;2023-03-03T22:56:30;17.27;;;3.22;;
47513;SDS011;33951;51.988;5.910;2023-03-03T22:58:58;22.42;;;3.97;;
47513;SDS011;33951;51.988;5.910;2023-03-03T23:01:24;23.05;;;3.42;;
47513;SDS011;33951;51.988;5.910;2023-03-03T23:03:50;12.90;;;3.28;;
47513;SDS011;33951;51.988;5.910;2023-03-03T23:06:16;17.00;;;3.92;;
47513;SDS011;33951;51.988;5.910;2023-03-03T23:08:43;19.27;;;3.63;;
47513;SDS011;33951;51.988;5.910;2023-03-03T23:11:12;24.42;;;3.75;;
47513;SDS011;33951;51.988;5.910;2023-03-03T23:13:40;15.85;;;3.72;;
47513;SDS011;33951;51.988;5.910;2023-03-03T23:16:06;15.73;;;3.38;;
47513;SDS011;33951;51.988;5.910;2023-03-03T23:18:32;18.80;;;4.05;;
47513;SDS011;33951;51.988;5.910;2023-03-03T23:20:57;17.80;;;3.40;;
47513;SDS011;33951;51.988;5.910;2023-03-03T23:23:26;22.20;;;3.60;;
47513;SDS011;33951;51.988;5.910;2023-03-03T23:25:53;18.85;;;3.65;;
47513;SDS011;33951;51.988;5.910;2023-03-03T23:28:19;20.55;;;4.00;;
47513;SDS011;33951;51.988;5.910;2023-03-03T23:30:44;21.40;;;3.55;;
47513;SDS011;33951;51.988;5.910;2023-03-03T23:33:10;24.10;;;4.07;;
47513;SDS011;33951;51.988;5.910;2023-03-03T23:35:36;22.17;;;3.80;;
47513;SDS011;33951;51.988;5.910;2023-03-03T23:38:01;16.55;;;3.67;;
47513;SDS011;33951;51.988;5.910;2023-03-03T23:40:27;16.60;;;4.00;;
47513;SDS011;33951;51.988;5.910;2023-03-03T23:42:53;24.50;;;3.70;;
47513;SDS011;33951;51.988;5.910;2023-03-03T23:45:18;16.08;;;3.15;;
47513;SDS011;33951;51.988;5.910;2023-03-03T23:47:44;13.93;;;3.38;;
47513;SDS011;33951;51.988;5.910;2023-03-03T23:50:10;28.85;;;4.47;;
47513;SDS011;33951;51.988;5.910;2023-03-03T23:52:38;13.60;;;3.47;;
47513;SDS011;33951;51.988;5.910;2023-03-03T23:55:04;18.83;;;4.13;;
47513;SDS011;33951;51.988;5.910;2023-03-03T23:57:30;19.40;;;4.38;;
47513;SDS011;33951;51.988;5.910;2023-03-03T23:59:56;25.02;;;4.43;;
